Jupiter Spirit — A8ZC2 — position and weather

sailwx.info

Track history (hours):
 
Tides and Currents Weather Stations Pressure Air Temp Water Temp Dewpoint Dewpoint Depression Visibility Wind Speed Wind Dir Waves Ship Positions

Jupiter Spirit

Last reported at 2015-Mar-06 21:18 UTC. Time now 2015-Mar-07 01:41 UTC.
Position N 35°59' W 005°13'.

Length 183 m; draft 9 m.

Type: Cargo ship. MMSI: 636015173.

Date/timePositionNaut miles runAvg speedWind from/ knotsBaromVisibWave heightAir tempDewpointWater temp
2015-Mar-06 21:18N 35°59' W 005°13'1316.8
2015-Mar-06 20:33N 35°58' W 005°28'21214.8
2015-Mar-06 06:15N 37°03' W 009°38'1216.9
2015-Mar-06 05:33N 37°15' W 009°42'1717.4
2015-Mar-06 04:33N 37°32' W 009°47'3617.4
2015-Mar-06 02:30N 38°07' W 009°57'1717.8
2015-Mar-06 01:31N 38°24' W 010°02'1717.5
2015-Mar-06 00:33N 38°40' W 010°07'1817.5
2015-Mar-05 23:32N 38°58' W 010°07'2217.7
2015-Mar-05 22:16N 39°20' W 010°07'70716.1
2015-Mar-04 02:15N 50°09' W 003°32'1115.4
2015-Mar-04 01:34N 50°19' W 003°26'8 7.5
2015-Mar-04 00:34N 50°25' W 003°19'1717.4
2015-Mar-03 23:34N 50°26' W 002°52'1817.2
2015-Mar-03 22:31N 50°27' W 002°24'1616.1
2015-Mar-03 21:33N 50°27' W 001°60'2114.6
2015-Mar-03 20:07N 50°26' W 001°27'913.6
2015-Mar-03 19:29N 50°26' W 001°13'1613.4
2015-Mar-03 18:19N 50°26' W 000°49'4415.9
2015-Mar-03 15:33N 50°34' E 000°19'1716.9
2015-Mar-03 14:33N 50°40' E 000°44'2216.6
2015-Mar-03 13:15N 50°53' E 001°12'1014.7
2015-Mar-03 12:33N 50°59' E 001°24'1414.0
2015-Mar-03 11:34N 51°09' E 001°40'1414.3
2015-Mar-03 10:34N 51°20' E 001°54'1312.5
2015-Mar-03 09:32N 51°21' E 002°14'1515.4
2015-Mar-03 08:33N 51°23' E 002°39'1312.9
2015-Mar-03 07:34N 51°23' E 002°59'1716.6
2015-Mar-03 06:34N 51°25' E 003°26'1110.6
2015-Mar-03 05:33N 51°24' E 003°43'1010.2
2015-Mar-03 04:33N 51°26' E 003°59'10 9.8
2015-Mar-03 03:33N 51°22' E 004°13'7 6.8
2015-Mar-03 02:34N 51°16' E 004°17'2 1.6
2015-Mar-03 01:33N 51°16' E 004°14'1 0.6
2015-Mar-03 00:30N 51°16' E 004°13'0 0.0
2015-Mar-02 23:33N 51°16' E 004°13'0 0.0
2015-Mar-02 22:33N 51°16' E 004°13'0 0.0
2015-Mar-02 21:33N 51°16' E 004°13'0 0.0
2015-Mar-02 20:33N 51°16' E 004°13'0 0.0
2015-Mar-02 19:33N 51°16' E 004°13'0 0.0
2015-Mar-02 18:30N 51°16' E 004°13'0 0.0
2015-Mar-02 17:33N 51°16' E 004°13'0 0.0
2015-Mar-02 16:33N 51°16' E 004°13'0 0.0
2015-Mar-02 15:33N 51°16' E 004°13'0 0.0
2015-Mar-02 14:30N 51°16' E 004°13'0 0.0
2015-Mar-02 13:33N 51°16' E 004°13'0 0.0
2015-Mar-02 12:33N 51°16' E 004°13'2 1.7
2015-Mar-02 11:34N 51°16' E 004°16'1 0.8
2015-Mar-02 10:33N 51°16' E 004°17'2 2.0
2015-Mar-02 09:33N 51°18' E 004°18'8 8.3
2015-Mar-02 08:33N 51°22' E 004°06'8 7.7
2015-Mar-02 07:33N 51°22' E 003°54'1010.1
2015-Mar-02 06:34N 51°26' E 003°40'9 9.3
2015-Mar-02 05:34N 51°25' E 003°25'1212.4
2015-Mar-02 04:33N 51°24' E 003°05'9 9.3
2015-Mar-02 03:33N 51°33' E 003°08'1111.4
2015-Mar-02 02:33N 51°44' E 003°14'9 8.2
2015-Mar-02 01:24N 51°53' E 003°16'3 3.9
2015-Mar-02 00:33N 51°56' E 003°19'4 4.0
2015-Mar-01 23:32N 52°00' E 003°20'4 4.0
2015-Mar-01 22:31N 52°04' E 003°21'7 5.2
2015-Mar-01 21:10N 52°11' E 003°23'6511.6
2015-Mar-01 15:33N 53°07' E 004°18'1513.5
2015-Mar-01 14:28N 53°19' E 004°30'1212.7
2015-Mar-01 13:31N 53°30' E 004°41'1212.8
2015-Mar-01 12:33N 53°35' E 004°60'1313.4
2015-Mar-01 11:34N 53°39' E 005°21'1514.5
2015-Mar-01 10:33N 53°43' E 005°45'1515.0
2015-Mar-01 09:34N 53°47' E 006°09'3615.2
2015-Mar-01 07:10N 53°58' E 007°08'610.2
2015-Mar-01 06:33N 54°01' E 007°17'1111.1
2015-Mar-01 05:33N 54°01' E 007°36'1313.2
2015-Mar-01 04:33N 54°01' E 007°58'1212.3
2015-Mar-01 03:33N 53°60' E 008°19'1515.1
2015-Mar-01 02:33N 53°53' E 008°42'1413.7
2015-Mar-01 01:33N 53°53' E 009°05'1312.7
2015-Mar-01 00:33N 53°46' E 009°24'1514.8
2015-Feb-28 23:33N 53°34' E 009°39'1010.1
2015-Feb-28 22:34N 53°33' E 009°55'2 1.8
2015-Feb-28 21:33N 53°31' E 009°58'0 0.0
2015-Feb-28 20:33N 53°31' E 009°58'0 0.0
2015-Feb-28 19:33N 53°31' E 009°58'0 0.0
2015-Feb-28 18:33N 53°31' E 009°58'0 0.0
2015-Feb-28 17:33N 53°31' E 009°58'0 0.0
2015-Feb-28 16:33N 53°31' E 009°58'0 0.0
2015-Feb-28 15:33N 53°31' E 009°58'0 0.0
2015-Feb-28 14:33N 53°31' E 009°58'0 0.0
2015-Feb-28 13:33N 53°31' E 009°58'0 0.0
2015-Feb-28 12:33N 53°31' E 009°58'0 0.0
2015-Feb-28 11:33N 53°31' E 009°58'0 0.0
2015-Feb-28 10:33N 53°31' E 009°58'0 0.0
2015-Feb-28 09:33N 53°31' E 009°58'0 0.0
2015-Feb-28 08:33N 53°31' E 009°58'0 0.0
2015-Feb-28 07:33N 53°31' E 009°58'0 0.0
2015-Feb-28 06:33N 53°31' E 009°58'0 0.0
2015-Feb-28 05:33N 53°31' E 009°58'0 0.0
2015-Feb-28 04:33N 53°31' E 009°58'0 0.0
2015-Feb-28 03:33N 53°31' E 009°58'0 0.0
2015-Feb-28 02:33N 53°31' E 009°58'0 0.0
2015-Feb-28 01:33N 53°31' E 009°58'0 0.0
2015-Feb-28 00:33N 53°31' E 009°58'0 0.0
2015-Feb-27 23:33N 53°31' E 009°58'0 0.0
2015-Feb-27 22:33N 53°31' E 009°58'0 0.0
2015-Feb-27 21:30N 53°31' E 009°58'0 0.0
2015-Feb-27 20:27N 53°31' E 009°58'0 0.0
2015-Feb-27 19:33N 53°31' E 009°58'0 0.0
2015-Feb-27 18:34N 53°31' E 009°58'5 4.8
2015-Feb-27 17:34N 53°33' E 009°50'1212.2
2015-Feb-27 16:34N 53°38' E 009°32'1615.8
2015-Feb-27 15:34N 53°52' E 009°18'1312.5
2015-Feb-27 14:34N 53°51' E 008°57'1312.6
2015-Feb-27 13:34N 53°57' E 008°38'1616.3
2015-Feb-27 12:33N 53°59' E 008°10'1616.4
2015-Feb-27 11:33N 53°57' E 007°43'1817.8
2015-Feb-27 10:34N 53°53' E 007°13'3517.4
2015-Feb-27 08:32N 53°43' E 006°16'1717.4
2015-Feb-27 07:33N 53°39' E 005°48'1717.2
2015-Feb-27 06:34N 53°33' E 005°21'1717.3
2015-Feb-27 05:33N 53°27' E 004°54'1716.4
2015-Feb-27 04:31N 53°14' E 004°34'1616.9
2015-Feb-27 03:33N 52°60' E 004°22'1716.9
2015-Feb-27 02:33N 52°45' E 004°08'1514.7
2015-Feb-27 01:33N 52°31' E 004°14'1312.6
2015-Feb-27 00:33N 52°28' E 004°34'2 1.9
2015-Feb-26 23:34N 52°28' E 004°37'4 3.5
2015-Feb-26 22:34N 52°26' E 004°43'4 4.4
2015-Feb-26 21:33N 52°24' E 004°49'0 0.1
2015-Feb-26 20:29N 52°24' E 004°49'0 0.0
2015-Feb-26 19:32N 52°24' E 004°49'0 0.0
2015-Feb-26 18:32N 52°24' E 004°49'0 0.0
2015-Feb-26 17:32N 52°24' E 004°49'0 0.0
2015-Feb-26 16:32N 52°24' E 004°49'0 0.0
2015-Feb-26 15:29N 52°24' E 004°49'0 0.0
2015-Feb-26 14:32N 52°24' E 004°49'0 0.0
2015-Feb-26 13:32N 52°24' E 004°49'0 0.0
2015-Feb-26 12:32N 52°24' E 004°49'0 0.0
2015-Feb-26 11:32N 52°24' E 004°49'0 0.0
2015-Feb-26 10:32N 52°24' E 004°49'0 0.0
2015-Feb-26 09:32N 52°24' E 004°49'0 0.0
2015-Feb-26 08:33N 52°24' E 004°49'5 4.7
2015-Feb-26 07:33N 52°26' E 004°42'4 3.8
2015-Feb-26 06:34N 52°28' E 004°37'8 8.0
2015-Feb-26 05:33N 52°29' E 004°23'1111.4
2015-Feb-26 04:33N 52°33' E 004°06'1818.3
2015-Feb-26 03:33N 52°48' E 003°48'13218.7
2015-Feb-25 20:29N 54°10' E 000°55'1718.7
2015-Feb-25 19:33N 54°20' E 000°30'1918.6
2015-Feb-25 18:34N 54°29' E 000°03'1818.3
2015-Feb-25 17:34N 54°39' W 000°24'1818.0
2015-Feb-25 16:34N 54°49' W 000°51'1817.7
2015-Feb-25 15:33N 54°59' W 001°16'5 0.3
2015-Feb-25 00:06N 55°01' W 001°25'4 7.7
2015-Feb-24 23:33N 55°03' W 001°19'2 2.3
2015-Feb-24 22:30N 55°03' W 001°15'2 1.7
2015-Feb-24 21:26N 55°03' W 001°18'  
Track history (hours):
 
Tides and Currents Weather Stations Pressure Air Temp Water Temp Dewpoint Dewpoint Depression Visibility Wind Speed Wind Dir Waves Ship Positions

Jupiter Spirit

Last reported at 2015-Mar-06 21:18 UTC. Time now 2015-Mar-07 01:41 UTC.
Position N 35°59' W 005°13'.

Length 183 m; draft 9 m.

Type: Cargo ship. MMSI: 636015173.

Date/timePositionNaut miles runAvg speedWind from/ knotsBaromVisibWave heightAir tempDewpointWater temp
2015-Mar-06 21:18N 35°59' W 005°13'1316.8
2015-Mar-06 20:33N 35°58' W 005°28'21214.8
2015-Mar-06 06:15N 37°03' W 009°38'1216.9
2015-Mar-06 05:33N 37°15' W 009°42'1717.4
2015-Mar-06 04:33N 37°32' W 009°47'3617.4
2015-Mar-06 02:30N 38°07' W 009°57'1717.8
2015-Mar-06 01:31N 38°24' W 010°02'1717.5
2015-Mar-06 00:33N 38°40' W 010°07'1817.5
2015-Mar-05 23:32N 38°58' W 010°07'2217.7
2015-Mar-05 22:16N 39°20' W 010°07'70716.1
2015-Mar-04 02:15N 50°09' W 003°32'1115.4
2015-Mar-04 01:34N 50°19' W 003°26'8 7.5
2015-Mar-04 00:34N 50°25' W 003°19'1717.4
2015-Mar-03 23:34N 50°26' W 002°52'1817.2
2015-Mar-03 22:31N 50°27' W 002°24'1616.1
2015-Mar-03 21:33N 50°27' W 001°60'2114.6
2015-Mar-03 20:07N 50°26' W 001°27'913.6
2015-Mar-03 19:29N 50°26' W 001°13'1613.4
2015-Mar-03 18:19N 50°26' W 000°49'4415.9
2015-Mar-03 15:33N 50°34' E 000°19'1716.9
2015-Mar-03 14:33N 50°40' E 000°44'2216.6
2015-Mar-03 13:15N 50°53' E 001°12'1014.7
2015-Mar-03 12:33N 50°59' E 001°24'1414.0
2015-Mar-03 11:34N 51°09' E 001°40'1414.3
2015-Mar-03 10:34N 51°20' E 001°54'1312.5
2015-Mar-03 09:32N 51°21' E 002°14'1515.4
2015-Mar-03 08:33N 51°23' E 002°39'1312.9
2015-Mar-03 07:34N 51°23' E 002°59'1716.6
2015-Mar-03 06:34N 51°25' E 003°26'1110.6
2015-Mar-03 05:33N 51°24' E 003°43'1010.2
2015-Mar-03 04:33N 51°26' E 003°59'10 9.8
2015-Mar-03 03:33N 51°22' E 004°13'7 6.8
2015-Mar-03 02:34N 51°16' E 004°17'2 1.6
2015-Mar-03 01:33N 51°16' E 004°14'1 0.6
2015-Mar-03 00:30N 51°16' E 004°13'0 0.0
2015-Mar-02 23:33N 51°16' E 004°13'0 0.0
2015-Mar-02 22:33N 51°16' E 004°13'0 0.0
2015-Mar-02 21:33N 51°16' E 004°13'0 0.0
2015-Mar-02 20:33N 51°16' E 004°13'0 0.0
2015-Mar-02 19:33N 51°16' E 004°13'0 0.0
2015-Mar-02 18:30N 51°16' E 004°13'0 0.0
2015-Mar-02 17:33N 51°16' E 004°13'0 0.0
2015-Mar-02 16:33N 51°16' E 004°13'0 0.0
2015-Mar-02 15:33N 51°16' E 004°13'0 0.0
2015-Mar-02 14:30N 51°16' E 004°13'0 0.0
2015-Mar-02 13:33N 51°16' E 004°13'0 0.0
2015-Mar-02 12:33N 51°16' E 004°13'2 1.7
2015-Mar-02 11:34N 51°16' E 004°16'1 0.8
2015-Mar-02 10:33N 51°16' E 004°17'2 2.0
2015-Mar-02 09:33N 51°18' E 004°18'8 8.3
2015-Mar-02 08:33N 51°22' E 004°06'8 7.7
2015-Mar-02 07:33N 51°22' E 003°54'1010.1
2015-Mar-02 06:34N 51°26' E 003°40'9 9.3
2015-Mar-02 05:34N 51°25' E 003°25'1212.4
2015-Mar-02 04:33N 51°24' E 003°05'9 9.3
2015-Mar-02 03:33N 51°33' E 003°08'1111.4
2015-Mar-02 02:33N 51°44' E 003°14'9 8.2
2015-Mar-02 01:24N 51°53' E 003°16'3 3.9
2015-Mar-02 00:33N 51°56' E 003°19'4 4.0
2015-Mar-01 23:32N 52°00' E 003°20'4 4.0
2015-Mar-01 22:31N 52°04' E 003°21'7 5.2
2015-Mar-01 21:10N 52°11' E 003°23'6511.6
2015-Mar-01 15:33N 53°07' E 004°18'1513.5
2015-Mar-01 14:28N 53°19' E 004°30'1212.7
2015-Mar-01 13:31N 53°30' E 004°41'1212.8
2015-Mar-01 12:33N 53°35' E 004°60'1313.4
2015-Mar-01 11:34N 53°39' E 005°21'1514.5
2015-Mar-01 10:33N 53°43' E 005°45'1515.0
2015-Mar-01 09:34N 53°47' E 006°09'3615.2
2015-Mar-01 07:10N 53°58' E 007°08'610.2
2015-Mar-01 06:33N 54°01' E 007°17'1111.1
2015-Mar-01 05:33N 54°01' E 007°36'1313.2
2015-Mar-01 04:33N 54°01' E 007°58'1212.3
2015-Mar-01 03:33N 53°60' E 008°19'1515.1
2015-Mar-01 02:33N 53°53' E 008°42'1413.7
2015-Mar-01 01:33N 53°53' E 009°05'1312.7
2015-Mar-01 00:33N 53°46' E 009°24'1514.8
2015-Feb-28 23:33N 53°34' E 009°39'1010.1
2015-Feb-28 22:34N 53°33' E 009°55'2 1.8
2015-Feb-28 21:33N 53°31' E 009°58'0 0.0
2015-Feb-28 20:33N 53°31' E 009°58'0 0.0
2015-Feb-28 19:33N 53°31' E 009°58'0 0.0
2015-Feb-28 18:33N 53°31' E 009°58'0 0.0
2015-Feb-28 17:33N 53°31' E 009°58'0 0.0
2015-Feb-28 16:33N 53°31' E 009°58'0 0.0
2015-Feb-28 15:33N 53°31' E 009°58'0 0.0
2015-Feb-28 14:33N 53°31' E 009°58'0 0.0
2015-Feb-28 13:33N 53°31' E 009°58'0 0.0
2015-Feb-28 12:33N 53°31' E 009°58'0 0.0
2015-Feb-28 11:33N 53°31' E 009°58'0 0.0
2015-Feb-28 10:33N 53°31' E 009°58'0 0.0
2015-Feb-28 09:33N 53°31' E 009°58'0 0.0
2015-Feb-28 08:33N 53°31' E 009°58'0 0.0
2015-Feb-28 07:33N 53°31' E 009°58'0 0.0
2015-Feb-28 06:33N 53°31' E 009°58'0 0.0
2015-Feb-28 05:33N 53°31' E 009°58'0 0.0
2015-Feb-28 04:33N 53°31' E 009°58'0 0.0
2015-Feb-28 03:33N 53°31' E 009°58'0 0.0
2015-Feb-28 02:33N 53°31' E 009°58'0 0.0
2015-Feb-28 01:33N 53°31' E 009°58'0 0.0
2015-Feb-28 00:33N 53°31' E 009°58'0 0.0
2015-Feb-27 23:33N 53°31' E 009°58'0 0.0
2015-Feb-27 22:33N 53°31' E 009°58'0 0.0
2015-Feb-27 21:30N 53°31' E 009°58'0 0.0
2015-Feb-27 20:27N 53°31' E 009°58'0 0.0
2015-Feb-27 19:33N 53°31' E 009°58'0 0.0
2015-Feb-27 18:34N 53°31' E 009°58'5 4.8
2015-Feb-27 17:34N 53°33' E 009°50'1212.2
2015-Feb-27 16:34N 53°38' E 009°32'1615.8
2015-Feb-27 15:34N 53°52' E 009°18'1312.5
2015-Feb-27 14:34N 53°51' E 008°57'1312.6
2015-Feb-27 13:34N 53°57' E 008°38'1616.3
2015-Feb-27 12:33N 53°59' E 008°10'1616.4
2015-Feb-27 11:33N 53°57' E 007°43'1817.8
2015-Feb-27 10:34N 53°53' E 007°13'3517.4
2015-Feb-27 08:32N 53°43' E 006°16'1717.4
2015-Feb-27 07:33N 53°39' E 005°48'1717.2
2015-Feb-27 06:34N 53°33' E 005°21'1717.3
2015-Feb-27 05:33N 53°27' E 004°54'1716.4
2015-Feb-27 04:31N 53°14' E 004°34'1616.9
2015-Feb-27 03:33N 52°60' E 004°22'1716.9
2015-Feb-27 02:33N 52°45' E 004°08'1514.7
2015-Feb-27 01:33N 52°31' E 004°14'1312.6
2015-Feb-27 00:33N 52°28' E 004°34'2 1.9
2015-Feb-26 23:34N 52°28' E 004°37'4 3.5
2015-Feb-26 22:34N 52°26' E 004°43'4 4.4
2015-Feb-26 21:33N 52°24' E 004°49'0 0.1
2015-Feb-26 20:29N 52°24' E 004°49'0 0.0
2015-Feb-26 19:32N 52°24' E 004°49'0 0.0
2015-Feb-26 18:32N 52°24' E 004°49'0 0.0
2015-Feb-26 17:32N 52°24' E 004°49'0 0.0
2015-Feb-26 16:32N 52°24' E 004°49'0 0.0
2015-Feb-26 15:29N 52°24' E 004°49'0 0.0
2015-Feb-26 14:32N 52°24' E 004°49'0 0.0
2015-Feb-26 13:32N 52°24' E 004°49'0 0.0
2015-Feb-26 12:32N 52°24' E 004°49'0 0.0
2015-Feb-26 11:32N 52°24' E 004°49'0 0.0
2015-Feb-26 10:32N 52°24' E 004°49'0 0.0
2015-Feb-26 09:32N 52°24' E 004°49'0 0.0
2015-Feb-26 08:33N 52°24' E 004°49'5 4.7
2015-Feb-26 07:33N 52°26' E 004°42'4 3.8
2015-Feb-26 06:34N 52°28' E 004°37'8 8.0
2015-Feb-26 05:33N 52°29' E 004°23'1111.4
2015-Feb-26 04:33N 52°33' E 004°06'1818.3
2015-Feb-26 03:33N 52°48' E 003°48'13218.7
2015-Feb-25 20:29N 54°10' E 000°55'1718.7
2015-Feb-25 19:33N 54°20' E 000°30'1918.6
2015-Feb-25 18:34N 54°29' E 000°03'1818.3
2015-Feb-25 17:34N 54°39' W 000°24'1818.0
2015-Feb-25 16:34N 54°49' W 000°51'1817.7
2015-Feb-25 15:33N 54°59' W 001°16'5 0.3
2015-Feb-25 00:06N 55°01' W 001°25'4 7.7
2015-Feb-24 23:33N 55°03' W 001°19'2 2.3
2015-Feb-24 22:30N 55°03' W 001°15'2 1.7
2015-Feb-24 21:26N 55°03' W 001°18'  

Dump ship's entire track history